createdAt,value
2018-04-24T00:02:20.820Z,3.30
2018-04-24T00:04:48.383Z,2.85
2018-04-24T00:07:15.963Z,3.60
2018-04-24T00:09:44.343Z,5.45
2018-04-24T00:12:11.902Z,2.60
2018-04-24T00:14:39.496Z,3.10
2018-04-24T00:17:07.150Z,4.20
2018-04-24T00:19:34.736Z,5.47
2018-04-24T00:22:02.328Z,4.12
2018-04-24T00:24:29.943Z,2.90
2018-04-24T00:26:57.580Z,4.50
2018-04-24T00:29:25.912Z,2.72
2018-04-24T00:31:53.503Z,2.37
2018-04-24T00:34:21.053Z,4.37
2018-04-24T00:36:49.347Z,2.70
2018-04-24T00:39:16.871Z,9.63
2018-04-24T00:41:44.396Z,5.00
2018-04-24T00:44:11.938Z,2.78
2018-04-24T00:46:40.267Z,2.65
2018-04-24T00:49:07.792Z,3.15
2018-04-24T00:51:35.343Z,3.22
2018-04-24T00:54:03.659Z,5.55
2018-04-24T00:56:31.211Z,2.92
2018-04-24T00:58:58.775Z,4.57
2018-04-24T01:01:26.328Z,4.97
2018-04-24T01:03:53.866Z,3.50
2018-04-24T01:06:21.426Z,4.30
2018-04-24T01:08:49.062Z,5.75
2018-04-24T01:11:17.328Z,4.65
2018-04-24T01:13:44.868Z,3.35
2018-04-24T01:16:12.421Z,4.18
2018-04-24T01:18:39.979Z,3.30
2018-04-24T01:21:07.568Z,3.20
2018-04-24T01:23:35.098Z,2.78
2018-04-24T01:26:02.603Z,3.90
2018-04-24T01:28:30.131Z,3.33
2018-04-24T01:30:57.691Z,6.07
2018-04-24T01:33:25.251Z,5.70
2018-04-24T01:35:52.827Z,5.20
2018-04-24T01:38:20.380Z,4.25
2018-04-24T01:40:47.901Z,4.40
2018-04-24T01:43:15.484Z,5.03
2018-04-24T01:45:43.083Z,4.20
2018-04-24T01:48:10.610Z,3.92
2018-04-24T01:50:38.143Z,3.80
2018-04-24T01:53:06.447Z,4.97
2018-04-24T01:55:33.951Z,2.85
2018-04-24T01:58:02.332Z,4.50
2018-04-24T02:00:29.939Z,7.00
2018-04-24T02:02:57.479Z,3.62
2018-04-24T02:05:25.086Z,4.28
2018-04-24T02:07:52.825Z,4.70
2018-04-24T02:10:20.390Z,6.87
2018-04-24T02:12:48.052Z,3.50
2018-04-24T02:15:15.642Z,6.28
2018-04-24T02:17:43.157Z,5.03
2018-04-24T02:20:10.729Z,7.97
2018-04-24T02:22:38.326Z,3.10
2018-04-24T02:25:05.877Z,4.95
2018-04-24T02:27:33.436Z,6.57
2018-04-24T02:30:01.102Z,5.40
2018-04-24T02:32:28.650Z,4.93
2018-04-24T02:34:56.200Z,5.60
2018-04-24T02:37:23.863Z,3.80
2018-04-24T02:39:51.513Z,4.43
2018-04-24T02:42:19.140Z,4.60
2018-04-24T02:44:46.642Z,5.78
2018-04-24T02:47:14.265Z,6.30
2018-04-24T02:49:42.580Z,3.65
2018-04-24T02:52:10.208Z,6.25
2018-04-24T02:54:37.788Z,7.37
2018-04-24T02:57:05.351Z,5.85
2018-04-24T02:59:32.937Z,3.30
2018-04-24T03:02:00.559Z,6.00
2018-04-24T03:04:28.125Z,5.25
2018-04-24T03:06:56.510Z,6.97
2018-04-24T03:09:24.094Z,5.18
2018-04-24T03:11:51.831Z,6.60
2018-04-24T03:14:19.385Z,3.95
2018-04-24T03:16:46.960Z,8.60
2018-04-24T03:19:14.610Z,9.20
2018-04-24T03:21:42.260Z,6.93
2018-04-24T03:24:09.763Z,4.37
2018-04-24T03:26:37.323Z,6.28
2018-04-24T03:29:05.701Z,4.65
2018-04-24T03:31:34.184Z,6.93
2018-04-24T03:34:01.736Z,5.47
2018-04-24T03:36:29.414Z,8.50
2018-04-24T03:38:57.767Z,5.15
2018-04-24T03:41:25.498Z,9.27
2018-04-24T03:43:53.410Z,8.38
2018-04-24T03:46:21.009Z,5.12
2018-04-24T03:48:48.630Z,5.87
2018-04-24T03:53:51.696Z,8.40
2018-04-24T03:56:19.299Z,4.75
2018-04-24T03:58:46.900Z,8.10
2018-04-24T04:01:14.464Z,7.87
2018-04-24T04:03:42.073Z,6.87
2018-04-24T04:06:09.567Z,5.60
2018-04-24T04:08:37.899Z,10.00
2018-04-24T04:11:05.523Z,7.47
2018-04-24T04:13:34.225Z,5.93
2018-04-24T04:16:01.862Z,5.57
2018-04-24T04:18:41.308Z,5.90
2018-04-24T04:21:20.679Z,9.25
2018-04-24T04:24:00.227Z,8.40
2018-04-24T04:26:27.850Z,8.13
2018-04-24T04:28:55.350Z,6.60
2018-04-24T04:31:23.008Z,4.87
2018-04-24T04:33:50.562Z,5.07
2018-04-24T04:36:18.117Z,9.60
2018-04-24T04:38:45.685Z,5.80
2018-04-24T04:41:13.200Z,5.93
2018-04-24T04:43:41.502Z,5.97
2018-04-24T04:46:09.049Z,7.03
2018-04-24T04:48:36.547Z,9.48
2018-04-24T04:51:04.084Z,15.93
2018-04-24T04:53:31.659Z,6.90
2018-04-24T04:55:59.270Z,11.27
2018-04-24T04:58:26.796Z,6.10
2018-04-24T05:00:54.416Z,7.60
2018-04-24T05:03:22.760Z,10.48
2018-04-24T05:05:51.140Z,5.20
2018-04-24T05:08:19.414Z,7.85
2018-04-24T05:10:47.737Z,5.10
2018-04-24T05:13:15.410Z,5.25
2018-04-24T05:15:43.081Z,8.32
2018-04-24T05:18:10.659Z,6.20
2018-04-24T05:20:38.951Z,6.95
2018-04-24T05:23:07.280Z,9.80
2018-04-24T05:25:34.941Z,5.00
2018-04-24T05:28:02.451Z,4.25
2018-04-24T05:30:30.013Z,7.28
2018-04-24T05:32:58.350Z,8.45
2018-04-24T05:35:25.893Z,5.62
2018-04-24T05:37:53.498Z,5.18
2018-04-24T05:40:22.276Z,4.90
2018-04-24T05:42:49.875Z,5.45
2018-04-24T05:45:18.172Z,6.25
2018-04-24T05:47:47.734Z,6.47
2018-04-24T05:50:16.073Z,6.45
2018-04-24T05:52:43.667Z,9.35
2018-04-24T05:55:11.453Z,6.90
2018-04-24T05:57:39.787Z,5.35
2018-04-24T06:00:07.346Z,10.10
2018-04-24T06:02:34.951Z,8.00
2018-04-24T06:05:03.228Z,8.00
2018-04-24T06:07:30.788Z,12.40
2018-04-24T06:09:58.361Z,16.70
2018-04-24T06:12:26.688Z,12.57
2018-04-24T06:14:54.231Z,7.40
2018-04-24T06:17:21.866Z,12.35
2018-04-24T06:19:49.367Z,7.60
2018-04-24T06:22:16.930Z,10.65
2018-04-24T06:24:47.110Z,9.30
2018-04-24T06:27:18.891Z,16.55
2018-04-24T06:29:46.623Z,6.90
2018-04-24T06:32:14.974Z,9.95
2018-04-24T06:34:42.605Z,10.48
2018-04-24T06:37:10.531Z,8.07
2018-04-24T06:39:38.094Z,10.00
2018-04-24T06:42:05.651Z,8.63
2018-04-24T06:44:33.255Z,10.30
2018-04-24T06:47:00.781Z,6.60
2018-04-24T06:49:28.668Z,8.77
2018-04-24T06:51:56.167Z,9.88
2018-04-24T06:54:24.701Z,21.33
2018-04-24T06:56:52.703Z,9.05
2018-04-24T06:59:20.210Z,9.35
2018-04-24T07:01:47.761Z,10.65
2018-04-24T07:04:15.259Z,9.55
2018-04-24T07:06:42.807Z,8.57
2018-04-24T07:09:10.363Z,13.90
2018-04-24T07:11:37.863Z,11.68
2018-04-24T07:14:05.355Z,13.80
2018-04-24T07:16:32.895Z,12.85
2018-04-24T07:19:01.170Z,11.98
2018-04-24T07:21:29.446Z,13.10
2018-04-24T07:23:57.731Z,13.98
2018-04-24T07:26:27.519Z,13.77
2018-04-24T07:28:55.091Z,14.20
2018-04-24T07:31:22.600Z,14.45
2018-04-24T07:33:50.098Z,15.25
2018-04-24T07:36:17.595Z,14.43
2018-04-24T07:38:45.123Z,11.27
2018-04-24T07:41:12.625Z,10.55
2018-04-24T07:43:40.166Z,11.75
2018-04-24T07:46:08.465Z,11.45
2018-04-24T07:48:36.211Z,9.70
2018-04-24T07:51:03.718Z,18.60
2018-04-24T07:53:31.354Z,16.25
2018-04-24T07:55:58.867Z,13.50
2018-04-24T07:58:27.159Z,11.77
2018-04-24T08:00:54.689Z,13.45
2018-04-24T08:03:22.191Z,17.45
2018-04-24T08:05:49.687Z,11.27
2018-04-24T08:08:17.228Z,14.43
2018-04-24T08:10:44.712Z,11.55
2018-04-24T08:13:12.207Z,12.52
2018-04-24T08:15:40.503Z,9.55
2018-04-24T08:18:08.015Z,15.60
2018-04-24T08:20:35.535Z,11.90
2018-04-24T08:23:03.050Z,14.57
2018-04-24T08:25:31.322Z,11.93
2018-04-24T08:27:59.103Z,13.80
2018-04-24T08:30:27.462Z,16.95
2018-04-24T08:32:55.743Z,14.90
2018-04-24T08:35:24.018Z,14.48
2018-04-24T08:37:51.517Z,14.05
2018-04-24T08:40:19.082Z,11.88
2018-04-24T08:42:46.626Z,15.52
2018-04-24T08:45:14.227Z,15.48
2018-04-24T08:47:41.721Z,12.65
2018-04-24T08:50:09.727Z,18.33
2018-04-24T08:52:37.255Z,11.88
2018-04-24T08:55:05.523Z,19.77
2018-04-24T08:57:33.807Z,16.45
2018-04-24T09:00:02.084Z,19.08
2018-04-24T09:02:30.363Z,15.63
2018-04-24T09:04:58.659Z,18.90
2018-04-24T09:07:26.163Z,18.25
2018-04-24T09:09:54.167Z,20.50
2018-04-24T09:12:22.463Z,15.00
2018-04-24T09:14:49.973Z,20.55
2018-04-24T09:17:17.475Z,20.02
2018-04-24T09:19:44.995Z,21.42
2018-04-24T09:22:14.211Z,17.83
2018-04-24T09:24:42.546Z,16.45
2018-04-24T09:27:10.122Z,18.37
2018-04-24T09:29:37.611Z,13.57
2018-04-24T09:32:05.896Z,17.65
2018-04-24T09:34:34.216Z,14.52
2018-04-24T09:37:01.730Z,15.05
2018-04-24T09:39:29.239Z,22.42
2018-04-24T09:41:56.777Z,15.48
2018-04-24T09:44:24.289Z,12.43
2018-04-24T09:46:51.796Z,19.00
2018-04-24T09:49:19.325Z,13.80
2018-04-24T09:51:46.835Z,13.88
2018-04-24T09:54:14.339Z,18.50
2018-04-24T09:56:42.624Z,16.92
2018-04-24T09:59:10.126Z,14.68
2018-04-24T10:01:37.627Z,13.23
2018-04-24T10:04:05.931Z,15.10
2018-04-24T10:06:33.439Z,18.30
2018-04-24T10:09:02.147Z,14.40
2018-04-24T10:11:30.531Z,15.65
2018-04-24T10:13:58.811Z,17.25
2018-04-24T10:16:27.116Z,18.73
2018-04-24T10:18:54.643Z,16.15
2018-04-24T10:21:22.916Z,12.15
2018-04-24T10:23:51.926Z,17.52
2018-04-24T10:26:19.537Z,15.93
2018-04-24T10:28:47.096Z,17.52
2018-04-24T10:31:14.625Z,13.95
2018-04-24T10:33:42.150Z,18.87
2018-04-24T10:36:09.668Z,17.90
2018-04-24T10:38:37.175Z,15.10
2018-04-24T10:41:05.466Z,19.40
2018-04-24T10:43:32.974Z,15.30
2018-04-24T10:46:00.483Z,15.18
2018-04-24T10:48:28.015Z,14.25
2018-04-24T10:50:56.315Z,16.25
2018-04-24T10:53:23.859Z,22.52
2018-04-24T10:55:52.209Z,14.95
2018-04-24T10:58:19.738Z,13.23
2018-04-24T11:00:47.255Z,15.18
2018-04-24T11:03:15.570Z,17.33
2018-04-24T11:05:43.100Z,14.13
2018-04-24T11:08:11.372Z,13.50
2018-04-24T11:10:38.967Z,11.00
2018-04-24T11:13:06.487Z,14.80
2018-04-24T11:15:34.760Z,10.73
2018-04-24T11:18:03.051Z,14.63
2018-04-24T11:20:30.547Z,14.07
2018-04-24T11:22:58.055Z,11.20
2018-04-24T11:25:26.359Z,16.60
2018-04-24T11:27:54.850Z,16.07
2018-04-24T11:30:22.422Z,9.13
2018-04-24T11:32:49.925Z,11.20
2018-04-24T11:35:17.419Z,10.57
2018-04-24T11:37:44.926Z,15.33
2018-04-24T11:40:12.479Z,12.97
2018-04-24T11:42:39.977Z,10.20
2018-04-24T11:45:07.536Z,11.97
2018-04-24T11:47:35.096Z,11.43
2018-04-24T11:50:02.619Z,19.20
2018-04-24T11:52:30.123Z,13.18
2018-04-24T11:54:58.409Z,13.02
2018-04-24T11:57:25.927Z,11.12
2018-04-24T11:59:53.435Z,11.53
2018-04-24T12:02:20.975Z,14.00
2018-04-24T12:04:48.489Z,12.27
2018-04-24T12:07:16.000Z,10.32
2018-04-24T12:09:43.641Z,13.70
2018-04-24T12:12:11.174Z,10.98
2018-04-24T12:14:38.708Z,9.27
2018-04-24T12:17:06.220Z,9.67
2018-04-24T12:19:34.491Z,10.00
2018-04-24T12:22:02.772Z,8.90
2018-04-24T12:24:31.078Z,12.87
2018-04-24T12:26:58.624Z,10.23
2018-04-24T12:29:26.131Z,10.53
2018-04-24T12:31:53.643Z,8.13
2018-04-24T12:34:21.148Z,16.00
2018-04-24T12:36:48.648Z,9.17
2018-04-24T12:39:16.256Z,13.47
2018-04-24T12:41:43.760Z,7.13
2018-04-24T12:44:12.062Z,6.97
2018-04-24T12:46:39.571Z,6.97
2018-04-24T12:49:07.849Z,8.70
2018-04-24T12:51:35.400Z,6.17
2018-04-24T12:54:03.133Z,8.97
2018-04-24T12:56:30.668Z,6.80
2018-04-24T12:58:58.203Z,6.17
2018-04-24T13:01:26.511Z,6.53
2018-04-24T13:03:54.090Z,8.30
2018-04-24T13:06:21.549Z,5.70
2018-04-24T13:08:49.055Z,6.60
2018-04-24T13:11:16.551Z,7.47
2018-04-24T13:13:44.064Z,6.13
2018-04-24T13:16:11.569Z,5.67
2018-04-24T13:18:39.081Z,5.83
2018-04-24T13:21:06.631Z,6.13
2018-04-24T13:23:34.230Z,5.90
2018-04-24T13:26:01.778Z,10.60
2018-04-24T13:28:29.356Z,7.73
2018-04-24T13:30:57.531Z,7.23
2018-04-24T13:33:25.630Z,7.53
2018-04-24T13:35:53.246Z,7.47
2018-04-24T13:38:20.720Z,7.07
2018-04-24T13:40:49.116Z,8.40
2018-04-24T13:43:16.719Z,6.60
2018-04-24T13:45:44.163Z,5.90
2018-04-24T13:48:11.685Z,8.63
2018-04-24T13:50:39.306Z,7.17
2018-04-24T13:53:06.867Z,11.73
2018-04-24T13:55:34.399Z,6.83
2018-04-24T13:58:01.907Z,6.60
2018-04-24T14:00:30.196Z,6.70
2018-04-24T14:02:57.714Z,7.17
2018-04-24T14:05:25.255Z,6.20
2018-04-24T14:07:52.753Z,6.00
2018-04-24T14:10:21.011Z,6.23
2018-04-24T14:12:48.540Z,11.30
2018-04-24T14:15:18.444Z,7.07
2018-04-24T14:17:47.071Z,8.20
2018-04-24T14:20:14.590Z,5.97
2018-04-24T14:22:42.149Z,6.53
2018-04-24T14:25:09.647Z,6.57
2018-04-24T14:27:37.193Z,7.20
2018-04-24T14:30:04.702Z,7.53
2018-04-24T14:32:32.372Z,7.87
2018-04-24T14:34:59.979Z,6.13
2018-04-24T14:37:29.232Z,7.10
2018-04-24T14:39:57.451Z,7.17
2018-04-24T14:42:26.696Z,10.93
2018-04-24T14:44:55.466Z,7.37
2018-04-24T14:47:23.747Z,7.47
2018-04-24T14:49:52.047Z,10.77
2018-04-24T14:52:19.579Z,12.43
2018-04-24T14:54:47.939Z,7.40
2018-04-24T14:57:17.699Z,9.00
2018-04-24T14:59:45.191Z,9.97
2018-04-24T15:02:12.750Z,9.97
2018-04-24T15:04:40.275Z,10.30
2018-04-24T15:07:08.025Z,14.17
2018-04-24T15:09:35.550Z,9.10
2018-04-24T15:12:03.129Z,9.50
2018-04-24T15:14:30.705Z,9.70
2018-04-24T15:16:59.034Z,7.87
2018-04-24T15:19:26.619Z,8.60
2018-04-24T15:21:54.210Z,8.83
2018-04-24T15:24:21.787Z,9.00
2018-04-24T15:26:49.303Z,7.73
2018-04-24T15:29:16.816Z,8.03
2018-04-24T15:31:44.460Z,9.50
2018-04-24T15:34:12.011Z,9.67
2018-04-24T15:36:39.563Z,8.10
2018-04-24T15:39:10.824Z,12.73
2018-04-24T15:41:38.892Z,10.17
2018-04-24T15:44:18.415Z,11.00
2018-04-24T15:46:47.169Z,9.37
2018-04-24T15:49:14.834Z,9.70
2018-04-24T15:51:42.394Z,10.83
2018-04-24T15:54:10.013Z,11.73
2018-04-24T15:56:37.601Z,12.10
2018-04-24T15:59:05.308Z,11.00
2018-04-24T16:01:33.614Z,9.83
2018-04-24T16:04:05.990Z,9.30
2018-04-24T16:06:33.819Z,15.43
2018-04-24T16:09:01.421Z,10.33
2018-04-24T16:11:29.036Z,10.00
2018-04-24T16:13:58.503Z,10.77
2018-04-24T16:16:26.021Z,11.23
2018-04-24T16:18:53.643Z,11.43
2018-04-24T16:21:21.236Z,12.83
2018-04-24T16:23:49.556Z,11.80
2018-04-24T16:26:18.125Z,12.33
2018-04-24T16:28:45.663Z,12.47
2018-04-24T16:31:13.248Z,12.53
2018-04-24T16:33:40.844Z,11.17
2018-04-24T16:36:08.834Z,13.57
2018-04-24T16:38:37.774Z,10.83
2018-04-24T16:41:06.531Z,9.97
2018-04-24T16:43:34.866Z,10.93
2018-04-24T16:46:02.450Z,11.13
2018-04-24T16:48:30.771Z,9.73
2018-04-24T16:50:58.405Z,9.70
2018-04-24T16:53:26.006Z,9.97
2018-04-24T16:55:53.515Z,9.00
2018-04-24T16:58:21.872Z,9.03
2018-04-24T17:00:53.880Z,9.80
2018-04-24T17:03:21.504Z,8.77
2018-04-24T17:05:49.062Z,8.00
2018-04-24T17:08:22.144Z,7.80
2018-04-24T17:10:49.752Z,8.03
2018-04-24T17:13:17.372Z,12.50
2018-04-24T17:15:44.885Z,9.17
2018-04-24T17:18:12.423Z,5.73
2018-04-24T17:20:40.708Z,8.87
2018-04-24T17:23:08.265Z,6.50
2018-04-24T17:25:36.673Z,6.37
2018-04-24T17:28:04.151Z,4.93
2018-04-24T17:30:31.723Z,6.20
2018-04-24T17:32:59.349Z,5.47
2018-04-24T17:35:26.941Z,5.60
2018-04-24T17:37:54.498Z,6.37
2018-04-24T17:40:22.045Z,7.83
2018-04-24T17:42:49.650Z,5.50
2018-04-24T17:45:17.135Z,4.63
2018-04-24T17:47:44.694Z,4.07
2018-04-24T17:50:15.642Z,4.67
2018-04-24T17:52:44.549Z,5.30
2018-04-24T17:55:12.149Z,4.80
2018-04-24T17:57:42.312Z,4.60
2018-04-24T18:00:09.876Z,4.17
2018-04-24T18:02:37.396Z,5.60
2018-04-24T18:05:05.868Z,6.23
2018-04-24T18:07:33.902Z,3.80
2018-04-24T18:10:01.470Z,6.60
2018-04-24T18:12:29.032Z,9.60
2018-04-24T18:14:56.635Z,4.93
2018-04-24T18:17:26.321Z,4.40
2018-04-24T18:19:54.619Z,3.93
2018-04-24T18:22:22.182Z,5.73
2018-04-24T18:24:49.798Z,3.80
2018-04-24T18:27:17.406Z,9.53
2018-04-24T18:29:44.997Z,7.23
2018-04-24T18:32:12.526Z,4.90
2018-04-24T18:34:42.500Z,4.10
2018-04-24T18:37:10.137Z,4.30
2018-04-24T18:39:39.083Z,5.50
2018-04-24T18:42:07.373Z,5.37
2018-04-24T18:44:34.912Z,6.77
2018-04-24T18:47:02.419Z,7.33
2018-04-24T18:49:29.980Z,7.57
2018-04-24T18:51:57.500Z,7.10
2018-04-24T18:54:25.830Z,4.23
2018-04-24T18:56:53.488Z,4.53
2018-04-24T19:02:01.331Z,8.33
2018-04-24T19:04:29.677Z,9.90
2018-04-24T19:06:57.314Z,9.07
2018-04-24T19:09:24.936Z,4.83
2018-04-24T19:11:52.577Z,7.60
2018-04-24T19:14:26.266Z,6.27
2018-04-24T19:16:53.948Z,5.30
2018-04-24T19:19:27.665Z,5.40
2018-04-24T19:21:55.394Z,6.73
2018-04-24T19:24:28.592Z,5.80
2018-04-24T19:26:56.323Z,5.27
2018-04-24T19:29:24.114Z,4.80
2018-04-24T19:31:58.649Z,9.10
2018-04-24T19:34:26.378Z,5.37
2018-04-24T19:36:54.127Z,5.63
2018-04-24T19:39:28.120Z,8.47
2018-04-24T19:41:55.714Z,6.50
2018-04-24T19:44:24.210Z,6.90
2018-04-24T19:47:00.951Z,5.57
2018-04-24T19:49:34.300Z,5.90
2018-04-24T19:52:01.835Z,8.50
2018-04-24T19:54:29.508Z,8.23
2018-04-24T19:56:57.116Z,6.23
2018-04-24T19:59:24.626Z,9.07
2018-04-24T20:01:52.281Z,10.30
2018-04-24T20:04:19.952Z,9.40
2018-04-24T20:06:47.594Z,6.90
2018-04-24T20:09:15.214Z,8.53
2018-04-24T20:11:43.843Z,5.70
2018-04-24T20:14:11.590Z,7.83
2018-04-24T20:16:39.171Z,10.67
2018-04-24T20:19:06.743Z,8.53
2018-04-24T20:21:34.383Z,7.20
2018-04-24T20:24:02.682Z,7.50
2018-04-24T20:26:30.274Z,7.63
2018-04-24T20:28:57.814Z,10.33
2018-04-24T20:31:25.468Z,7.07
2018-04-24T20:33:52.998Z,9.00
2018-04-24T20:36:20.573Z,8.40
2018-04-24T20:38:48.287Z,10.57
2018-04-24T20:41:15.965Z,9.03
2018-04-24T20:43:43.522Z,8.20
2018-04-24T20:46:11.210Z,7.00
2018-04-24T20:48:38.781Z,6.30
2018-04-24T20:51:06.475Z,6.70
2018-04-24T20:53:34.120Z,10.00
2018-04-24T20:56:01.606Z,5.80
2018-04-24T20:58:29.181Z,7.30
2018-04-24T21:00:57.602Z,6.90
2018-04-24T21:03:25.979Z,6.70
2018-04-24T21:05:53.532Z,7.50
2018-04-24T21:08:21.185Z,6.83
2018-04-24T21:10:48.846Z,7.23
2018-04-24T21:13:17.192Z,6.30
2018-04-24T21:15:44.889Z,12.40
2018-04-24T21:18:12.645Z,9.60
2018-04-24T21:20:40.283Z,6.87
2018-04-24T21:23:07.892Z,6.53
2018-04-24T21:25:35.510Z,6.27
2018-04-24T21:28:03.209Z,7.53
2018-04-24T21:30:30.854Z,8.23
2018-04-24T21:32:58.578Z,11.97
2018-04-24T21:35:26.243Z,11.10
2018-04-24T21:37:53.882Z,11.33
2018-04-24T21:40:21.537Z,10.70
2018-04-24T21:42:49.157Z,8.07
2018-04-24T21:45:18.300Z,7.90
2018-04-24T21:47:45.886Z,6.60
2018-04-24T21:50:13.582Z,7.40
2018-04-24T21:52:41.187Z,9.20
2018-04-24T21:55:08.699Z,11.03
2018-04-24T21:57:36.252Z,9.50
2018-04-24T22:00:03.904Z,6.87
2018-04-24T22:02:31.717Z,9.57
2018-04-24T22:05:18.396Z,7.63
2018-04-24T22:07:50.321Z,8.40
2018-04-24T22:10:21.458Z,10.17
2018-04-24T22:12:49.092Z,9.10
2018-04-24T22:15:25.474Z,10.53
2018-04-24T22:17:53.077Z,11.03
2018-04-24T22:20:23.349Z,9.40
2018-04-24T22:22:51.655Z,13.70
2018-04-24T22:25:19.235Z,12.10
2018-04-24T22:27:57.988Z,15.00
2018-04-24T22:30:26.130Z,14.50
2018-04-24T22:32:56.611Z,13.17
2018-04-24T22:35:41.063Z,13.50
2018-04-24T22:38:35.887Z,17.70
2018-04-24T22:41:09.375Z,21.20
2018-04-24T22:43:37.579Z,18.70
2018-04-24T22:46:05.246Z,17.23
2018-04-24T22:48:32.928Z,17.40
2018-04-24T22:51:00.640Z,17.77
2018-04-24T22:53:28.369Z,19.73
2018-04-24T22:55:55.901Z,17.00
2018-04-24T22:58:23.615Z,16.60
2018-04-24T23:00:51.250Z,16.83
2018-04-24T23:03:18.914Z,15.73
2018-04-24T23:05:47.469Z,15.97
2018-04-24T23:08:15.144Z,16.73
2018-04-24T23:10:54.696Z,18.67
2018-04-24T23:13:34.152Z,17.17
2018-04-24T23:16:13.713Z,14.57
2018-04-24T23:18:53.162Z,16.23
2018-04-24T23:21:20.280Z,13.70
2018-04-24T23:23:47.974Z,14.23
2018-04-24T23:26:15.643Z,14.47
2018-04-24T23:28:43.210Z,14.77
2018-04-24T23:31:10.852Z,16.23
2018-04-24T23:33:38.561Z,14.82
2018-04-24T23:36:06.197Z,12.93
2018-04-24T23:38:33.888Z,12.80
2018-04-24T23:41:02.244Z,15.07
2018-04-24T23:43:29.936Z,15.57
2018-04-24T23:45:58.304Z,14.03
2018-04-24T23:48:26.716Z,13.67
2018-04-24T23:50:54.423Z,13.05
2018-04-24T23:53:21.998Z,14.50
2018-04-24T23:55:49.620Z,15.10
2018-04-24T23:58:17.220Z,13.18
